Terminal Aerodrome Forecast
Issued by NWS

Home | Current Version | Previous Version | Text Only | Print | Product List | Glossary On
Versions: 1 2 3 4 5 6 7 8 9 10 11 12 13 14 15 16 17 18 19 20 21 22 23
000
FTUS41 KRNK 282038 AAC
TAFBCB
TAF AMD
KBCB 282038Z 2821/2918 29010G18KT P6SM VCSH BKN070
     FM282300 29010KT P6SM VCSH SCT080
     FM290800 31003KT 1SM BR BKN025
     FM291300 33004KT P6SM BKN035
     FM291600 34006KT P6SM SCT040=

USA.gov is the U.S. government's official web portal to all federal, state and local government web resources and services.